sensor_id;sensor_type;location;lat;lon;timestamp;pressure;altitude;pressure_sealevel;temperature;humidity
58843;BME280;44614;54.356;10.100;2023-07-30T09:28:18;100452.22;;;23.21;79.41
58843;BME280;44614;54.356;10.100;2023-07-30T09:30:48;100458.56;;;23.57;79.83
58843;BME280;44614;54.356;10.100;2023-07-30T09:33:18;100468.63;;;23.81;80.23
58843;BME280;44614;54.356;10.100;2023-07-30T09:35:44;100467.69;;;23.63;80.91
58843;BME280;44614;54.356;10.100;2023-07-30T09:38:10;100469.94;;;23.75;81.05
58843;BME280;44614;54.356;10.100;2023-07-30T09:40:36;100468.19;;;23.88;80.30
58843;BME280;44614;54.356;10.100;2023-07-30T09:43:03;100469.03;;;24.28;80.83
58843;BME280;44614;54.356;10.100;2023-07-30T09:45:33;100459.41;;;24.51;80.25
58843;BME280;44614;54.356;10.100;2023-07-30T09:47:59;100469.06;;;24.37;78.75
58843;BME280;44614;54.356;10.100;2023-07-30T09:50:24;100451.47;;;24.14;79.16
58843;BME280;44614;54.356;10.100;2023-07-30T09:52:50;100461.28;;;24.33;78.93
58843;BME280;44614;54.356;10.100;2023-07-30T09:55:16;100464.91;;;24.34;77.47
58843;BME280;44614;54.356;10.100;2023-07-30T09:57:41;100468.22;;;24.27;77.81
58843;BME280;44614;54.356;10.100;2023-07-30T10:00:07;100452.47;;;24.09;77.40
58843;BME280;44614;54.356;10.100;2023-07-30T10:02:41;100457.28;;;24.17;79.23
58843;BME280;44614;54.356;10.100;2023-07-30T10:05:10;100453.66;;;24.17;73.37
58843;BME280;44614;54.356;10.100;2023-07-30T10:07:41;100455.81;;;24.20;77.23
58843;BME280;44614;54.356;10.100;2023-07-30T10:10:08;100464.16;;;24.11;75.73
58843;BME280;44614;54.356;10.100;2023-07-30T10:12:35;100434.66;;;24.14;77.40
58843;BME280;44614;54.356;10.100;2023-07-30T10:15:01;100450.56;;;24.27;75.60
58843;BME280;44614;54.356;10.100;2023-07-30T10:17:27;100459.34;;;24.03;64.05
58843;BME280;44614;54.356;10.100;2023-07-30T10:19:54;100444.09;;;23.64;77.03
58843;BME280;44614;54.356;10.100;2023-07-30T10:22:23;100457.94;;;23.83;74.39
58843;BME280;44614;54.356;10.100;2023-07-30T10:25:01;100464.06;;;23.40;77.16
58843;BME280;44614;54.356;10.100;2023-07-30T10:27:39;100473.88;;;23.29;72.42
58843;BME280;44614;54.356;10.100;2023-07-30T10:30:13;100468.81;;;23.17;76.65
58843;BME280;44614;54.356;10.100;2023-07-30T10:33:09;100462.38;;;22.94;71.31
58843;BME280;44614;54.356;10.100;2023-07-30T10:35:44;100476.09;;;23.04;76.70
58843;BME280;44614;54.356;10.100;2023-07-30T10:38:29;100458.19;;;22.78;73.64
58843;BME280;44614;54.356;10.100;2023-07-30T10:41:02;100474.81;;;22.74;73.68
58843;BME280;44614;54.356;10.100;2023-07-30T10:43:34;100476.69;;;22.79;76.29
58843;BME280;44614;54.356;10.100;2023-07-30T10:46:00;100478.34;;;22.66;76.03
58843;BME280;44614;54.356;10.100;2023-07-30T10:48:30;100473.59;;;22.39;76.52
58843;BME280;44614;54.356;10.100;2023-07-30T10:50:57;100471.53;;;22.45;76.93
58843;BME280;44614;54.356;10.100;2023-07-30T10:53:23;100480.22;;;22.43;75.81
58843;BME280;44614;54.356;10.100;2023-07-30T10:55:48;100476.09;;;22.27;75.12
58843;BME280;44614;54.356;10.100;2023-07-30T10:58:15;100482.19;;;22.56;74.00
58843;BME280;44614;54.356;10.100;2023-07-30T11:00:41;100470.47;;;22.54;74.35
58843;BME280;44614;54.356;10.100;2023-07-30T11:03:07;100469.34;;;22.42;74.94
58843;BME280;44614;54.356;10.100;2023-07-30T11:05:32;100487.16;;;22.46;75.63
58843;BME280;44614;54.356;10.100;2023-07-30T11:07:57;100482.59;;;22.36;76.07
58843;BME280;44614;54.356;10.100;2023-07-30T11:10:23;100483.88;;;22.30;77.01
58843;BME280;44614;54.356;10.100;2023-07-30T11:12:49;100475.97;;;22.18;77.34
58843;BME280;44614;54.356;10.100;2023-07-30T11:15:17;100474.63;;;22.16;76.32
58843;BME280;44614;54.356;10.100;2023-07-30T11:17:43;100479.41;;;22.29;77.08
58843;BME280;44614;54.356;10.100;2023-07-30T11:20:26;100485.09;;;22.24;74.87
58843;BME280;44614;54.356;10.100;2023-07-30T11:22:53;100479.97;;;21.98;78.17
58843;BME280;44614;54.356;10.100;2023-07-30T11:25:18;100480.09;;;22.07;77.67
58843;BME280;44614;54.356;10.100;2023-07-30T11:27:48;100479.97;;;21.98;73.52
58843;BME280;44614;54.356;10.100;2023-07-30T11:30:13;100434.84;;;21.58;73.19
58843;BME280;44614;54.356;10.100;2023-07-30T11:32:41;100479.69;;;21.67;75.11
58843;BME280;44614;54.356;10.100;2023-07-30T11:35:07;100492.53;;;21.68;74.96
58843;BME280;44614;54.356;10.100;2023-07-30T11:37:32;100466.19;;;21.55;73.90
58843;BME280;44614;54.356;10.100;2023-07-30T11:39:58;100485.09;;;21.77;72.15
58843;BME280;44614;54.356;10.100;2023-07-30T11:42:24;100501.09;;;22.04;71.41
58843;BME280;44614;54.356;10.100;2023-07-30T11:44:49;100479.50;;;22.24;70.19
58843;BME280;44614;54.356;10.100;2023-07-30T11:47:23;100474.81;;;22.74;71.05
58843;BME280;44614;54.356;10.100;2023-07-30T11:49:56;100475.38;;;23.13;68.18
58843;BME280;44614;54.356;10.100;2023-07-30T11:52:21;100461.63;;;23.25;68.97
58843;BME280;44614;54.356;10.100;2023-07-30T11:54:47;100451.09;;;23.67;68.57
58843;BME280;44614;54.356;10.100;2023-07-30T11:57:12;100468.38;;;23.91;64.28
58843;BME280;44614;54.356;10.100;2023-07-30T11:59:38;100465.75;;;23.95;66.14
58843;BME280;44614;54.356;10.100;2023-07-30T12:02:07;100492.38;;;23.61;63.77
58843;BME280;44614;54.356;10.100;2023-07-30T12:04:45;100471.44;;;23.58;65.88
58843;BME280;44614;54.356;10.100;2023-07-30T12:07:11;100463.34;;;23.57;63.84
58843;BME280;44614;54.356;10.100;2023-07-30T12:09:36;100449.28;;;23.48;66.09
58843;BME280;44614;54.356;10.100;2023-07-30T12:12:03;100453.28;;;23.78;66.80
58843;BME280;44614;54.356;10.100;2023-07-30T12:14:43;100456.41;;;23.77;62.68
58843;BME280;44614;54.356;10.100;2023-07-30T12:17:09;100477.31;;;23.93;61.28
58843;BME280;44614;54.356;10.100;2023-07-30T12:19:35;100457.78;;;23.88;59.01
58843;BME280;44614;54.356;10.100;2023-07-30T12:22:03;100461.94;;;23.46;60.17
58843;BME280;44614;54.356;10.100;2023-07-30T12:24:29;100471.44;;;23.14;64.75
58843;BME280;44614;54.356;10.100;2023-07-30T12:26:54;100481.50;;;23.01;64.05
58843;BME280;44614;54.356;10.100;2023-07-30T12:29:20;100452.84;;;23.18;63.44
58843;BME280;44614;54.356;10.100;2023-07-30T12:31:45;100467.69;;;23.41;62.97
58843;BME280;44614;54.356;10.100;2023-07-30T12:34:12;100450.44;;;23.70;61.77
58843;BME280;44614;54.356;10.100;2023-07-30T12:36:37;100455.50;;;23.90;54.25
58843;BME280;44614;54.356;10.100;2023-07-30T12:39:02;100446.22;;;24.12;60.04
58843;BME280;44614;54.356;10.100;2023-07-30T12:41:28;100443.88;;;24.05;61.03
58843;BME280;44614;54.356;10.100;2023-07-30T12:43:55;100452.44;;;24.40;60.34
58843;BME280;44614;54.356;10.100;2023-07-30T12:46:24;100458.66;;;24.77;59.42
58843;BME280;44614;54.356;10.100;2023-07-30T12:48:52;100457.34;;;25.00;59.58
58843;BME280;44614;54.356;10.100;2023-07-30T12:51:17;100446.25;;;24.95;57.69
58843;BME280;44614;54.356;10.100;2023-07-30T12:53:43;100440.00;;;24.32;59.42
58843;BME280;44614;54.356;10.100;2023-07-30T12:56:08;100434.16;;;24.51;58.17
58843;BME280;44614;54.356;10.100;2023-07-30T12:58:34;100439.81;;;24.95;52.16
58843;BME280;44614;54.356;10.100;2023-07-30T13:01:00;100438.16;;;24.76;58.08
58843;BME280;44614;54.356;10.100;2023-07-30T13:03:25;100435.94;;;24.39;59.72
58843;BME280;44614;54.356;10.100;2023-07-30T13:05:51;100439.59;;;24.08;60.54
58843;BME280;44614;54.356;10.100;2023-07-30T13:08:17;100441.06;;;23.74;60.39
58843;BME280;44614;54.356;10.100;2023-07-30T13:10:42;100460.94;;;23.42;61.48
58843;BME280;44614;54.356;10.100;2023-07-30T13:13:08;100465.66;;;22.96;61.53
58843;BME280;44614;54.356;10.100;2023-07-30T13:15:33;100467.78;;;22.63;62.04
58843;BME280;44614;54.356;10.100;2023-07-30T13:17:58;100474.13;;;22.41;62.71
58843;BME280;44614;54.356;10.100;2023-07-30T13:20:24;100487.38;;;22.22;62.50
58843;BME280;44614;54.356;10.100;2023-07-30T13:22:52;100481.41;;;21.96;62.97
58843;BME280;44614;54.356;10.100;2023-07-30T13:25:19;100497.03;;;21.83;64.25
58843;BME280;44614;54.356;10.100;2023-07-30T13:27:45;100510.22;;;21.26;60.09
58843;BME280;44614;54.356;10.100;2023-07-30T13:30:10;100514.91;;;21.11;65.43
58843;BME280;44614;54.356;10.100;2023-07-30T13:32:36;100560.34;;;20.74;67.68
58843;BME280;44614;54.356;10.100;2023-07-30T13:35:02;100578.81;;;19.83;71.57
58843;BME280;44614;54.356;10.100;2023-07-30T13:37:28;100593.03;;;18.77;77.95
58843;BME280;44614;54.356;10.100;2023-07-30T13:39:53;100587.06;;;18.24;79.42
58843;BME280;44614;54.356;10.100;2023-07-30T13:42:19;100590.66;;;18.14;79.75
58843;BME280;44614;54.356;10.100;2023-07-30T13:44:44;100581.22;;;17.85;79.44
58843;BME280;44614;54.356;10.100;2023-07-30T13:47:10;100570.94;;;17.65;80.49
58843;BME280;44614;54.356;10.100;2023-07-30T13:49:35;100571.75;;;17.65;80.13
58843;BME280;44614;54.356;10.100;2023-07-30T13:52:01;100573.44;;;17.82;78.60
58843;BME280;44614;54.356;10.100;2023-07-30T13:54:26;100575.41;;;17.91;77.98
58843;BME280;44614;54.356;10.100;2023-07-30T13:56:52;100579.28;;;18.11;77.13
58843;BME280;44614;54.356;10.100;2023-07-30T13:59:17;100569.00;;;18.16;76.61
58843;BME280;44614;54.356;10.100;2023-07-30T14:01:44;100583.72;;;18.17;76.59
58843;BME280;44614;54.356;10.100;2023-07-30T14:04:09;100569.84;;;18.01;77.71
58843;BME280;44614;54.356;10.100;2023-07-30T14:06:35;100590.38;;;18.00;78.47
58843;BME280;44614;54.356;10.100;2023-07-30T14:09:02;100576.50;;;18.00;77.95
58843;BME280;44614;54.356;10.100;2023-07-30T14:11:29;100567.91;;;17.92;78.63
58843;BME280;44614;54.356;10.100;2023-07-30T14:13:54;100586.81;;;17.90;80.00
58843;BME280;44614;54.356;10.100;2023-07-30T14:16:21;100561.25;;;17.83;79.90
58843;BME280;44614;54.356;10.100;2023-07-30T14:18:46;100569.88;;;17.86;79.97
58843;BME280;44614;54.356;10.100;2023-07-30T14:21:12;100561.78;;;17.85;79.91
58843;BME280;44614;54.356;10.100;2023-07-30T14:23:38;100578.75;;;17.83;80.90
58843;BME280;44614;54.356;10.100;2023-07-30T14:26:04;100566.81;;;17.83;82.30
58843;BME280;44614;54.356;10.100;2023-07-30T14:28:30;100567.09;;;17.86;81.96
58843;BME280;44614;54.356;10.100;2023-07-30T14:30:55;100571.50;;;18.02;82.79
58843;BME280;44614;54.356;10.100;2023-07-30T14:33:21;100574.81;;;18.20;84.52
58843;BME280;44614;54.356;10.100;2023-07-30T14:35:47;100555.03;;;18.47;83.13
58843;BME280;44614;54.356;10.100;2023-07-30T14:38:12;100549.41;;;18.57;82.76
58843;BME280;44614;54.356;10.100;2023-07-30T14:40:38;100550.81;;;18.60;82.32
58843;BME280;44614;54.356;10.100;2023-07-30T14:43:04;100543.88;;;18.52;83.48
58843;BME280;44614;54.356;10.100;2023-07-30T14:45:30;100546.63;;;18.57;85.73
58843;BME280;44614;54.356;10.100;2023-07-30T14:47:55;100528.94;;;18.33;82.92
58843;BME280;44614;54.356;10.100;2023-07-30T14:50:23;100521.72;;;18.32;83.15
58843;BME280;44614;54.356;10.100;2023-07-30T14:52:48;100516.19;;;18.21;83.11
58843;BME280;44614;54.356;10.100;2023-07-30T14:55:14;100528.94;;;18.33;83.60
58843;BME280;44614;54.356;10.100;2023-07-30T14:57:40;100537.75;;;18.50;83.00
58843;BME280;44614;54.356;10.100;2023-07-30T15:00:06;100531.06;;;18.56;82.37
58843;BME280;44614;54.356;10.100;2023-07-30T15:02:32;100529.75;;;19.03;81.58
58843;BME280;44614;54.356;10.100;2023-07-30T15:05:00;100517.03;;;19.36;80.10
58843;BME280;44614;54.356;10.100;2023-07-30T15:07:25;100544.25;;;19.44;79.23
58843;BME280;44614;54.356;10.100;2023-07-30T15:09:52;100545.84;;;19.11;79.60
58843;BME280;44614;54.356;10.100;2023-07-30T15:12:19;100500.06;;;18.88;79.51
58843;BME280;44614;54.356;10.100;2023-07-30T15:14:45;100532.53;;;19.08;80.35
58843;BME280;44614;54.356;10.100;2023-07-30T15:17:10;100525.28;;;19.07;80.22
58843;BME280;44614;54.356;10.100;2023-07-30T15:19:36;100509.09;;;19.14;79.63
58843;BME280;44614;54.356;10.100;2023-07-30T15:22:01;100534.03;;;19.35;79.78
58843;BME280;44614;54.356;10.100;2023-07-30T15:24:28;100529.38;;;19.59;79.03
58843;BME280;44614;54.356;10.100;2023-07-30T15:26:53;100526.03;;;19.57;78.54
58843;BME280;44614;54.356;10.100;2023-07-30T15:29:19;100528.09;;;19.46;78.31
58843;BME280;44614;54.356;10.100;2023-07-30T15:31:44;100529.88;;;19.32;79.17
58843;BME280;44614;54.356;10.100;2023-07-30T15:34:10;100531.63;;;19.18;80.38
58843;BME280;44614;54.356;10.100;2023-07-30T15:36:36;100535.78;;;19.20;80.34
58843;BME280;44614;54.356;10.100;2023-07-30T15:39:02;100514.50;;;19.01;80.48
58843;BME280;44614;54.356;10.100;2023-07-30T15:41:28;100521.72;;;19.02;80.65
58843;BME280;44614;54.356;10.100;2023-07-30T15:43:53;100531.47;;;18.99;80.60
58843;BME280;44614;54.356;10.100;2023-07-30T15:46:20;100505.31;;;18.95;80.47
58843;BME280;44614;54.356;10.100;2023-07-30T15:48:46;100525.38;;;18.97;80.07
58843;BME280;44614;54.356;10.100;2023-07-30T15:51:12;100525.91;;;18.99;80.02
58843;BME280;44614;54.356;10.100;2023-07-30T15:53:38;100547.38;;;18.93;80.42
58843;BME280;44614;54.356;10.100;2023-07-30T15:56:03;100534.38;;;18.73;80.10
58843;BME280;44614;54.356;10.100;2023-07-30T15:58:30;100540.75;;;18.79;80.67
58843;BME280;44614;54.356;10.100;2023-07-30T16:00:56;100545.78;;;18.72;80.40
58843;BME280;44614;54.356;10.100;2023-07-30T16:03:24;100543.28;;;18.70;80.82
58843;BME280;44614;54.356;10.100;2023-07-30T16:05:50;100539.94;;;18.73;80.85
58843;BME280;44614;54.356;10.100;2023-07-30T16:08:16;100524.91;;;18.74;80.62
58843;BME280;44614;54.356;10.100;2023-07-30T16:10:41;100538.75;;;18.85;80.73
58843;BME280;44614;54.356;10.100;2023-07-30T16:13:07;100515.19;;;18.62;81.25
58843;BME280;44614;54.356;10.100;2023-07-30T16:15:35;100544.66;;;18.73;81.63
58843;BME280;44614;54.356;10.100;2023-07-30T16:18:00;100540.81;;;18.59;81.92
58843;BME280;44614;54.356;10.100;2023-07-30T16:20:26;100538.03;;;18.59;82.47
58843;BME280;44614;54.356;10.100;2023-07-30T16:22:51;100513.59;;;18.45;82.42
58843;BME280;44614;54.356;10.100;2023-07-30T16:25:17;100533.84;;;18.56;81.55
58843;BME280;44614;54.356;10.100;2023-07-30T16:27:42;100517.53;;;18.39;81.11
58843;BME280;44614;54.356;10.100;2023-07-30T16:30:08;100528.34;;;18.41;81.17
58843;BME280;44614;54.356;10.100;2023-07-30T16:32:33;100529.19;;;18.41;80.83
58843;BME280;44614;54.356;10.100;2023-07-30T16:34:59;100524.47;;;18.37;81.30
58843;BME280;44614;54.356;10.100;2023-07-30T16:37:24;100529.75;;;18.38;80.55
58843;BME280;44614;54.356;10.100;2023-07-30T16:39:50;100529.75;;;18.38;81.44
58843;BME280;44614;54.356;10.100;2023-07-30T16:42:17;100529.50;;;18.30;81.40
58843;BME280;44614;54.356;10.100;2023-07-30T16:44:49;100538.38;;;18.37;81.42
58843;BME280;44614;54.356;10.100;2023-07-30T16:47:15;100522.28;;;18.23;81.77
58843;BME280;44614;54.356;10.100;2023-07-30T16:49:40;100540.66;;;18.14;82.94
58843;BME280;44614;54.356;10.100;2023-07-30T16:52:06;100432.66;;;17.46;82.96
58843;BME280;44614;54.356;10.100;2023-07-30T16:54:32;100536.47;;;18.12;83.34
58843;BME280;44614;54.356;10.100;2023-07-30T16:56:58;100536.78;;;17.95;84.09
58843;BME280;44614;54.356;10.100;2023-07-30T16:59:24;100548.19;;;17.83;84.35
58843;BME280;44614;54.356;10.100;2023-07-30T17:01:49;100550.97;;;17.83;84.52
58843;BME280;44614;54.356;10.100;2023-07-30T17:04:15;100545.13;;;17.80;84.96
58843;BME280;44614;54.356;10.100;2023-07-30T17:06:40;100535.94;;;17.69;85.55
58843;BME280;44614;54.356;10.100;2023-07-30T17:09:06;100550.13;;;17.67;86.52
58843;BME280;44614;54.356;10.100;2023-07-30T17:11:32;100539.81;;;17.47;87.68
58843;BME280;44614;54.356;10.100;2023-07-30T17:13:57;100555.06;;;17.35;90.38
58843;BME280;44614;54.356;10.100;2023-07-30T17:16:23;100548.38;;;17.20;90.42
58843;BME280;44614;54.356;10.100;2023-07-30T17:18:48;100536.13;;;16.96;91.60
58843;BME280;44614;54.356;10.100;2023-07-30T17:21:16;100556.66;;;17.00;90.77
58843;BME280;44614;54.356;10.100;2023-07-30T17:23:41;100564.19;;;17.10;91.06
58843;BME280;44614;54.356;10.100;2023-07-30T17:26:06;100574.69;;;17.02;90.49
58843;BME280;44614;54.356;10.100;2023-07-30T17:28:32;100563.81;;;16.86;92.31
58843;BME280;44614;54.356;10.100;2023-07-30T17:30:57;100568.75;;;16.78;93.05
58843;BME280;44614;54.356;10.100;2023-07-30T17:33:23;100572.03;;;16.70;92.65
58843;BME280;44614;54.356;10.100;2023-07-30T17:35:48;100582.88;;;16.72;91.56
58843;BME280;44614;54.356;10.100;2023-07-30T17:38:14;100577.56;;;16.70;91.41
58843;BME280;44614;54.356;10.100;2023-07-30T17:40:49;100570.06;;;16.66;90.92
58843;BME280;44614;54.356;10.100;2023-07-30T17:43:14;100572.03;;;16.70;90.47
58843;BME280;44614;54.356;10.100;2023-07-30T17:45:41;100565.34;;;16.66;90.14
58843;BME280;44614;54.356;10.100;2023-07-30T17:48:06;100560.94;;;16.65;90.13
58843;BME280;44614;54.356;10.100;2023-07-30T17:50:32;100574.88;;;16.75;89.94
58843;BME280;44614;54.356;10.100;2023-07-30T17:52:57;100571.28;;;16.80;90.04
58843;BME280;44614;54.356;10.100;2023-07-30T17:55:23;100571.56;;;16.84;90.35
58843;BME280;44614;54.356;10.100;2023-07-30T17:57:48;100568.28;;;16.87;89.96
58843;BME280;44614;54.356;10.100;2023-07-30T18:00:14;100574.66;;;16.92;89.67
58843;BME280;44614;54.356;10.100;2023-07-30T18:02:41;100583.28;;;16.96;94.03
58843;BME280;44614;54.356;10.100;2023-07-30T18:05:06;100586.03;;;16.91;91.85
58843;BME280;44614;54.356;10.100;2023-07-30T18:07:32;100583.50;;;16.84;91.71
58843;BME280;44614;54.356;10.100;2023-07-30T18:09:58;100562.34;;;16.68;91.46
58843;BME280;44614;54.356;10.100;2023-07-30T18:12:26;100552.94;;;16.74;90.62
58843;BME280;44614;54.356;10.100;2023-07-30T18:14:52;100558.78;;;16.77;90.73
58843;BME280;44614;54.356;10.100;2023-07-30T18:17:17;100589.06;;;16.89;91.05
58843;BME280;44614;54.356;10.100;2023-07-30T18:19:43;100571.28;;;16.85;90.61
58843;BME280;44614;54.356;10.100;2023-07-30T18:22:08;100580.19;;;16.87;91.09
58843;BME280;44614;54.356;10.100;2023-07-30T18:24:34;100608.50;;;16.94;92.33
58843;BME280;44614;54.356;10.100;2023-07-30T18:26:59;100606.22;;;16.86;93.48
58843;BME280;44614;54.356;10.100;2023-07-30T18:29:25;100604.22;;;16.71;95.36
58843;BME280;44614;54.356;10.100;2023-07-30T18:31:50;100596.66;;;16.62;95.01
58843;BME280;44614;54.356;10.100;2023-07-30T18:34:16;100598.59;;;16.56;95.16
58843;BME280;44614;54.356;10.100;2023-07-30T18:36:41;100608.53;;;16.52;95.14
58843;BME280;44614;54.356;10.100;2023-07-30T18:39:08;100618.47;;;16.43;95.15
58843;BME280;44614;54.356;10.100;2023-07-30T18:41:34;100612.84;;;16.32;94.72
58843;BME280;44614;54.356;10.100;2023-07-30T18:44:02;100612.91;;;16.38;93.95
58843;BME280;44614;54.356;10.100;2023-07-30T18:46:27;100613.94;;;16.31;93.80
58843;BME280;44614;54.356;10.100;2023-07-30T18:48:53;100608.69;;;16.30;93.81
58843;BME280;44614;54.356;10.100;2023-07-30T18:51:19;100611.69;;;16.23;93.47
58843;BME280;44614;54.356;10.100;2023-07-30T18:53:45;100618.34;;;16.22;93.33
58843;BME280;44614;54.356;10.100;2023-07-30T18:56:10;100628.03;;;16.25;93.57
58843;BME280;44614;54.356;10.100;2023-07-30T18:58:36;100627.16;;;16.19;93.72
58843;BME280;44614;54.356;10.100;2023-07-30T19:01:01;100637.13;;;16.15;93.71
58843;BME280;44614;54.356;10.100;2023-07-30T19:03:26;100624.28;;;16.04;93.67
58843;BME280;44614;54.356;10.100;2023-07-30T19:05:55;100627.91;;;16.09;93.29
58843;BME280;44614;54.356;10.100;2023-07-30T19:08:26;100608.69;;;15.93;93.39
58843;BME280;44614;54.356;10.100;2023-07-30T19:10:52;100646.41;;;15.99;93.95
58843;BME280;44614;54.356;10.100;2023-07-30T19:13:17;100628.59;;;15.90;94.07
58843;BME280;44614;54.356;10.100;2023-07-30T19:15:43;100620.25;;;15.84;93.97
58843;BME280;44614;54.356;10.100;2023-07-30T19:18:09;100626.91;;;15.89;93.78
58843;BME280;44614;54.356;10.100;2023-07-30T19:20:34;100634.88;;;15.80;95.16
58843;BME280;44614;54.356;10.100;2023-07-30T19:23:01;100644.25;;;15.79;95.80
58843;BME280;44614;54.356;10.100;2023-07-30T19:25:27;100638.38;;;15.70;95.43
58843;BME280;44614;54.356;10.100;2023-07-30T19:27:52;100635.69;;;15.53;95.87
58843;BME280;44614;54.356;10.100;2023-07-30T19:30:18;100650.09;;;15.55;96.00
58843;BME280;44614;54.356;10.100;2023-07-30T19:32:43;100666.66;;;15.50;96.30
58843;BME280;44614;54.356;10.100;2023-07-30T19:35:09;100653.91;;;15.49;95.78
58843;BME280;44614;54.356;10.100;2023-07-30T19:37:34;100641.38;;;15.42;95.62
58843;BME280;44614;54.356;10.100;2023-07-30T19:40:01;100655.47;;;15.40;96.17
58843;BME280;44614;54.356;10.100;2023-07-30T19:42:27;100643.19;;;15.31;96.14
58843;BME280;44614;54.356;10.100;2023-07-30T19:44:53;100653.34;;;15.25;96.99
58843;BME280;44614;54.356;10.100;2023-07-30T19:47:19;100645.56;;;15.22;96.91
58843;BME280;44614;54.356;10.100;2023-07-30T19:49:48;100651.06;;;15.17;96.68
58843;BME280;44614;54.356;10.100;2023-07-30T19:52:13;100596.59;;;14.74;97.09
58843;BME280;44614;54.356;10.100;2023-07-30T19:54:38;100661.56;;;15.15;96.95
58843;BME280;44614;54.356;10.100;2023-07-30T19:57:04;100644.81;;;15.05;97.66
58843;BME280;44614;54.356;10.100;2023-07-30T19:59:30;100647.53;;;15.00;98.60
58843;BME280;44614;54.356;10.100;2023-07-30T20:01:55;100636.00;;;14.86;98.70
58843;BME280;44614;54.356;10.100;2023-07-30T20:04:20;100651.38;;;14.99;98.47
58843;BME280;44614;54.356;10.100;2023-07-30T20:06:47;100650.81;;;14.97;97.51
58843;BME280;44614;54.356;10.100;2023-07-30T20:09:15;100648.03;;;14.97;97.26
58843;BME280;44614;54.356;10.100;2023-07-30T20:11:41;100649.19;;;15.01;96.96
58843;BME280;44614;54.356;10.100;2023-07-30T20:14:07;100643.28;;;14.92;97.27
58843;BME280;44614;54.356;10.100;2023-07-30T20:16:33;100644.50;;;15.01;96.90
58843;BME280;44614;54.356;10.100;2023-07-30T20:18:58;100642.41;;;14.92;96.91
58843;BME280;44614;54.356;10.100;2023-07-30T20:21:24;100643.53;;;14.91;96.99
58843;BME280;44614;54.356;10.100;2023-07-30T20:23:49;100646.38;;;14.96;96.76
58843;BME280;44614;54.356;10.100;2023-07-30T20:26:16;100647.38;;;14.90;99.64
58843;BME280;44614;54.356;10.100;2023-07-30T20:28:43;100647.56;;;14.83;98.87
58843;BME280;44614;54.356;10.100;2023-07-30T20:31:09;100631.16;;;14.76;97.70
58843;BME280;44614;54.356;10.100;2023-07-30T20:33:34;100653.94;;;14.83;97.35
58843;BME280;44614;54.356;10.100;2023-07-30T20:36:03;100657.78;;;14.82;96.97
58843;BME280;44614;54.356;10.100;2023-07-30T20:38:29;100626.03;;;14.63;97.75
58843;BME280;44614;54.356;10.100;2023-07-30T20:40:59;100634.19;;;14.75;97.51
58843;BME280;44614;54.356;10.100;2023-07-30T20:43:26;100636.69;;;14.76;97.37
58843;BME280;44614;54.356;10.100;2023-07-30T20:45:51;100633.59;;;14.73;97.31
58843;BME280;44614;54.356;10.100;2023-07-30T20:48:16;100626.59;;;14.65;97.34
58843;BME280;44614;54.356;10.100;2023-07-30T20:50:42;100632.13;;;14.65;97.59
58843;BME280;44614;54.356;10.100;2023-07-30T20:53:07;100634.38;;;14.68;97.67
58843;BME280;44614;54.356;10.100;2023-07-30T20:55:32;100631.03;;;14.66;97.76
58843;BME280;44614;54.356;10.100;2023-07-30T20:57:59;100632.13;;;14.65;97.82
58843;BME280;44614;54.356;10.100;2023-07-30T21:00:24;100628.19;;;14.61;98.08
58843;BME280;44614;54.356;10.100;2023-07-30T21:02:50;100627.03;;;14.57;97.99
58843;BME280;44614;54.356;10.100;2023-07-30T21:05:16;100639.25;;;14.61;98.41
58843;BME280;44614;54.356;10.100;2023-07-30T21:07:41;100629.22;;;14.55;98.66
58843;BME280;44614;54.356;10.100;2023-07-30T21:10:07;100635.31;;;14.57;98.59
58843;BME280;44614;54.356;10.100;2023-07-30T21:12:34;100638.28;;;14.50;98.60
58843;BME280;44614;54.356;10.100;2023-07-30T21:14:59;100644.72;;;14.56;100.00
58843;BME280;44614;54.356;10.100;2023-07-30T21:17:28;100639.13;;;14.51;100.00
58843;BME280;44614;54.356;10.100;2023-07-30T21:19:54;100627.03;;;14.40;99.67
58843;BME280;44614;54.356;10.100;2023-07-30T21:22:19;100646.78;;;14.49;99.59
58843;BME280;44614;54.356;10.100;2023-07-30T21:24:49;100638.50;;;14.49;99.41
58843;BME280;44614;54.356;10.100;2023-07-30T21:27:16;100618.94;;;14.33;99.62
58843;BME280;44614;54.356;10.100;2023-07-30T21:29:41;100632.91;;;14.44;99.94
58843;BME280;44614;54.356;10.100;2023-07-30T21:32:07;100626.72;;;14.36;100.00
58843;BME280;44614;54.356;10.100;2023-07-30T21:34:32;100638.44;;;14.44;100.00
58843;BME280;44614;54.356;10.100;2023-07-30T21:36:58;100635.28;;;14.35;100.00
58843;BME280;44614;54.356;10.100;2023-07-30T21:39:23;100628.59;;;14.31;100.00
58843;BME280;44614;54.356;10.100;2023-07-30T21:41:48;100660.69;;;14.37;100.00
58843;BME280;44614;54.356;10.100;2023-07-30T21:44:14;100646.41;;;14.23;100.00
58843;BME280;44614;54.356;10.100;2023-07-30T21:46:39;100631.25;;;14.09;100.00
58843;BME280;44614;54.356;10.100;2023-07-30T21:49:05;100630.06;;;14.22;100.00
58843;BME280;44614;54.356;10.100;2023-07-30T21:51:30;100648.91;;;14.25;100.00
58843;BME280;44614;54.356;10.100;2023-07-30T21:53:55;100637.47;;;14.16;100.00
58843;BME280;44614;54.356;10.100;2023-07-30T21:56:21;100622.38;;;14.07;100.00
58843;BME280;44614;54.356;10.100;2023-07-30T21:58:46;100629.06;;;14.11;100.00
58843;BME280;44614;54.356;10.100;2023-07-30T22:01:12;100631.84;;;14.11;100.00
58843;BME280;44614;54.356;10.100;2023-07-30T22:03:37;100621.81;;;14.05;100.00